Disclaimer

Please do not use the information listed here in-flight or in-navigation, as they are not provided to us by the airports but are provided by volunteers, so they might be outdated.

Search


Regions


Airport information page

Radio informations:
LA ROCHELLE TWR - 118.0 MHz
LA ROCHELLE ATIS - 126.875 MHz
LA ROCHELLE APP - 124.2 MHz

Airport informations:
Latitude: 46° 10' 45.00" N
Longitude: 001° 11' 43.00" W
Elevation: 74 feet - 23 meters
Operating hours: Remarks
Operating agency: Civil government, landing fees and diplomatic clearance may be required
Timezone: UTC+1(+2DT) - Last Sunday in March to last Sunday in October
Fuel: Jet A1, without icing nhibitor.

100/130 MIL Spec, low lead, aviation gasoline (BLUE)

Runway information:
10/28 - 7398 x 148 feet< - >2255 x 45 meters

Recent METARs:
LFBH 210300Z AUTO 18007KT CAVOK 01/M01 Q1007 BECMG 11010KT
LFBH 210330Z AUTO 16009KT CAVOK 01/M01 Q1007 NOSIG
LFBH 210400Z AUTO 16010KT CAVOK 01/M01 Q1008 NOSIG

Airport on the map: